Bg Felixstowe — V2BR7 — position and weather

sailwx.info

Track history (hours):
 
Tides and Currents Weather Stations Pressure Air Temp Water Temp Dewpoint Dewpoint Depression Visibility Wind Speed Wind Dir Waves Ship Positions

Bg Felixstowe

Last reported at 2016-Aug-22 10:16 UTC. Time now 2016-Aug-28 05:09 UTC.
Position N 25°07' W 080°07'.

Length 139 m; draft 6.4 m.

Type: Ship. MMSI: 304906000.

Date/timePositionNaut miles runAvg speedWind from/ knotsBaromVisibWave heightAir tempDewpointWater temp
2016-Aug-22 10:16N 25°07' W 080°07'1113.6
2016-Aug-22 09:27N 25°18' W 080°02'1112.9
2016-Aug-22 08:33N 25°29' W 080°00'1312.6
2016-Aug-22 07:33N 25°42' W 080°02'8 8.4
2016-Aug-22 06:34N 25°46' W 080°10'0 0.1
2016-Aug-22 05:31N 25°46' W 080°10'0 0.0
2016-Aug-22 04:33N 25°46' W 080°10'0 0.0
2016-Aug-22 03:33N 25°46' W 080°10'0 0.0
2016-Aug-22 02:33N 25°46' W 080°10'0 0.0
2016-Aug-22 01:32N 25°46' W 080°10'0 0.0
2016-Aug-22 00:32N 25°46' W 080°10'0 0.0
2016-Aug-21 23:31N 25°46' W 080°10'0 0.0
2016-Aug-21 22:31N 25°46' W 080°10'0 0.0
2016-Aug-21 21:33N 25°46' W 080°10'0 0.0
2016-Aug-21 20:33N 25°46' W 080°10'0 0.0
2016-Aug-21 19:32N 25°46' W 080°10'0 0.0
2016-Aug-21 18:32N 25°46' W 080°10'0 0.0
2016-Aug-21 17:32N 25°46' W 080°10'0 0.0
2016-Aug-21 16:31N 25°46' W 080°10'0 0.0
2016-Aug-21 15:31N 25°46' W 080°10'0 0.0
2016-Aug-21 14:33N 25°46' W 080°10'6 6.1
2016-Aug-21 13:33N 25°46' W 080°03'1212.4
2016-Aug-21 12:34N 25°34' W 080°00'  
2016-Aug-15 06:32N 25°30' W 079°60'18 1.1
2016-Aug-14 14:09N 25°46' W 080°09'6 9.3
2016-Aug-14 13:33N 25°46' W 080°03'1414.0
2016-Aug-14 12:33N 25°32' W 080°00'  
Track history (hours):
 
Tides and Currents Weather Stations Pressure Air Temp Water Temp Dewpoint Dewpoint Depression Visibility Wind Speed Wind Dir Waves Ship Positions

Bg Felixstowe

Last reported at 2016-Aug-22 10:16 UTC. Time now 2016-Aug-28 05:09 UTC.
Position N 25°07' W 080°07'.

Length 139 m; draft 6.4 m.

Type: Ship. MMSI: 304906000.

Date/timePositionNaut miles runAvg speedWind from/ knotsBaromVisibWave heightAir tempDewpointWater temp
2016-Aug-22 10:16N 25°07' W 080°07'1113.6
2016-Aug-22 09:27N 25°18' W 080°02'1112.9
2016-Aug-22 08:33N 25°29' W 080°00'1312.6
2016-Aug-22 07:33N 25°42' W 080°02'8 8.4
2016-Aug-22 06:34N 25°46' W 080°10'0 0.1
2016-Aug-22 05:31N 25°46' W 080°10'0 0.0
2016-Aug-22 04:33N 25°46' W 080°10'0 0.0
2016-Aug-22 03:33N 25°46' W 080°10'0 0.0
2016-Aug-22 02:33N 25°46' W 080°10'0 0.0
2016-Aug-22 01:32N 25°46' W 080°10'0 0.0
2016-Aug-22 00:32N 25°46' W 080°10'0 0.0
2016-Aug-21 23:31N 25°46' W 080°10'0 0.0
2016-Aug-21 22:31N 25°46' W 080°10'0 0.0
2016-Aug-21 21:33N 25°46' W 080°10'0 0.0
2016-Aug-21 20:33N 25°46' W 080°10'0 0.0
2016-Aug-21 19:32N 25°46' W 080°10'0 0.0
2016-Aug-21 18:32N 25°46' W 080°10'0 0.0
2016-Aug-21 17:32N 25°46' W 080°10'0 0.0
2016-Aug-21 16:31N 25°46' W 080°10'0 0.0
2016-Aug-21 15:31N 25°46' W 080°10'0 0.0
2016-Aug-21 14:33N 25°46' W 080°10'6 6.1
2016-Aug-21 13:33N 25°46' W 080°03'1212.4
2016-Aug-21 12:34N 25°34' W 080°00'  
2016-Aug-15 06:32N 25°30' W 079°60'18 1.1
2016-Aug-14 14:09N 25°46' W 080°09'6 9.3
2016-Aug-14 13:33N 25°46' W 080°03'1414.0
2016-Aug-14 12:33N 25°32' W 080°00'  

Dump ship's entire track history